Weather at Tawau Airport

Public forecast

Using degrees Celsius for public forecast. Weather courtesy of forecast.io.

Current aviation weather report (METAR) for Tawau Airport

2024/04/13 09:00 (retrieved 57 minutes ago)

WBKW 130900Z 13005KT 090V160 9999 FEW016 30/26 Q1008

Aviation forecast (TAF) for Tawau Airport

2024/04/13 06:00 (retrieved 4 hours ago)

TAF WBKW 130500Z 1306/1406 VRB03KT 9999 FEW016 PROB40 TEMPO 1306/1310 6000 SHRA FEW012 SCT035